sensor_id;sensor_type;location;lat;lon;timestamp;P1;durP1;ratioP1;P2;durP2;ratioP2
25331;SDS011;13284;52.748;13.452;2023-07-13T00:02:05;3.60;;;3.40;;
25331;SDS011;13284;52.748;13.452;2023-07-13T00:04:31;4.57;;;4.13;;
25331;SDS011;13284;52.748;13.452;2023-07-13T00:06:56;4.50;;;4.03;;
25331;SDS011;13284;52.748;13.452;2023-07-13T00:09:22;3.90;;;3.60;;
25331;SDS011;13284;52.748;13.452;2023-07-13T00:11:52;4.43;;;3.53;;
25331;SDS011;13284;52.748;13.452;2023-07-13T00:14:18;4.77;;;3.80;;
25331;SDS011;13284;52.748;13.452;2023-07-13T00:16:44;4.30;;;4.00;;
25331;SDS011;13284;52.748;13.452;2023-07-13T00:19:11;4.07;;;3.67;;
25331;SDS011;13284;52.748;13.452;2023-07-13T00:21:40;4.13;;;3.80;;
25331;SDS011;13284;52.748;13.452;2023-07-13T00:24:07;4.20;;;3.90;;
25331;SDS011;13284;52.748;13.452;2023-07-13T00:26:37;4.20;;;3.80;;
25331;SDS011;13284;52.748;13.452;2023-07-13T00:29:03;4.20;;;3.83;;
25331;SDS011;13284;52.748;13.452;2023-07-13T00:31:31;5.10;;;4.07;;
25331;SDS011;13284;52.748;13.452;2023-07-13T00:33:56;3.80;;;3.30;;
25331;SDS011;13284;52.748;13.452;2023-07-13T00:36:22;4.57;;;4.17;;
25331;SDS011;13284;52.748;13.452;2023-07-13T00:38:47;4.70;;;4.30;;
25331;SDS011;13284;52.748;13.452;2023-07-13T00:41:13;4.67;;;4.27;;
25331;SDS011;13284;52.748;13.452;2023-07-13T00:43:39;4.50;;;3.90;;
25331;SDS011;13284;52.748;13.452;2023-07-13T00:46:11;3.93;;;3.53;;
25331;SDS011;13284;52.748;13.452;2023-07-13T00:48:41;4.50;;;3.70;;
25331;SDS011;13284;52.748;13.452;2023-07-13T00:51:09;5.23;;;4.40;;
25331;SDS011;13284;52.748;13.452;2023-07-13T00:53:35;4.33;;;3.93;;
25331;SDS011;13284;52.748;13.452;2023-07-13T00:56:01;4.83;;;3.60;;
25331;SDS011;13284;52.748;13.452;2023-07-13T00:58:28;4.30;;;4.00;;
25331;SDS011;13284;52.748;13.452;2023-07-13T01:00:54;4.30;;;3.90;;
25331;SDS011;13284;52.748;13.452;2023-07-13T01:03:19;6.20;;;4.00;;
25331;SDS011;13284;52.748;13.452;2023-07-13T01:05:46;4.03;;;3.73;;
25331;SDS011;13284;52.748;13.452;2023-07-13T01:08:14;5.07;;;4.60;;
25331;SDS011;13284;52.748;13.452;2023-07-13T01:10:40;4.40;;;4.00;;
25331;SDS011;13284;52.748;13.452;2023-07-13T01:13:06;4.30;;;3.90;;
25331;SDS011;13284;52.748;13.452;2023-07-13T01:15:35;5.30;;;4.60;;
25331;SDS011;13284;52.748;13.452;2023-07-13T01:18:03;4.57;;;4.03;;
25331;SDS011;13284;52.748;13.452;2023-07-13T01:20:32;4.97;;;4.60;;
25331;SDS011;13284;52.748;13.452;2023-07-13T01:23:03;5.00;;;4.30;;
25331;SDS011;13284;52.748;13.452;2023-07-13T01:25:34;5.90;;;3.97;;
25331;SDS011;13284;52.748;13.452;2023-07-13T01:28:00;5.20;;;4.30;;
25331;SDS011;13284;52.748;13.452;2023-07-13T01:30:27;8.33;;;4.40;;
25331;SDS011;13284;52.748;13.452;2023-07-13T01:32:53;4.30;;;4.00;;
25331;SDS011;13284;52.748;13.452;2023-07-13T01:35:19;4.50;;;4.03;;
25331;SDS011;13284;52.748;13.452;2023-07-13T01:37:45;5.63;;;5.03;;
25331;SDS011;13284;52.748;13.452;2023-07-13T01:40:11;5.30;;;4.50;;
25331;SDS011;13284;52.748;13.452;2023-07-13T01:42:37;5.57;;;4.37;;
25331;SDS011;13284;52.748;13.452;2023-07-13T01:45:03;5.37;;;4.87;;
25331;SDS011;13284;52.748;13.452;2023-07-13T01:47:29;4.90;;;4.10;;
25331;SDS011;13284;52.748;13.452;2023-07-13T01:49:55;7.17;;;4.93;;
25331;SDS011;13284;52.748;13.452;2023-07-13T01:52:21;5.70;;;4.53;;
25331;SDS011;13284;52.748;13.452;2023-07-13T01:54:50;5.97;;;4.70;;
25331;SDS011;13284;52.748;13.452;2023-07-13T01:57:15;5.07;;;4.50;;
25331;SDS011;13284;52.748;13.452;2023-07-13T01:59:42;4.27;;;3.87;;
25331;SDS011;13284;52.748;13.452;2023-07-13T02:02:07;6.20;;;4.90;;
25331;SDS011;13284;52.748;13.452;2023-07-13T02:04:33;5.07;;;4.57;;
25331;SDS011;13284;52.748;13.452;2023-07-13T02:06:58;4.90;;;4.50;;
25331;SDS011;13284;52.748;13.452;2023-07-13T02:09:24;5.13;;;4.60;;
25331;SDS011;13284;52.748;13.452;2023-07-13T02:11:50;5.80;;;5.30;;
25331;SDS011;13284;52.748;13.452;2023-07-13T02:14:15;5.30;;;4.90;;
25331;SDS011;13284;52.748;13.452;2023-07-13T02:16:41;5.87;;;5.17;;
25331;SDS011;13284;52.748;13.452;2023-07-13T02:19:07;5.27;;;4.77;;
25331;SDS011;13284;52.748;13.452;2023-07-13T02:21:33;7.30;;;5.23;;
25331;SDS011;13284;52.748;13.452;2023-07-13T02:23:59;7.03;;;5.03;;
25331;SDS011;13284;52.748;13.452;2023-07-13T02:26:25;6.60;;;5.30;;
25331;SDS011;13284;52.748;13.452;2023-07-13T02:28:51;5.97;;;5.27;;
25331;SDS011;13284;52.748;13.452;2023-07-13T02:31:22;6.67;;;5.03;;
25331;SDS011;13284;52.748;13.452;2023-07-13T02:33:48;5.50;;;5.03;;
25331;SDS011;13284;52.748;13.452;2023-07-13T02:36:14;5.00;;;4.40;;
25331;SDS011;13284;52.748;13.452;2023-07-13T02:38:41;7.07;;;4.90;;
25331;SDS011;13284;52.748;13.452;2023-07-13T02:41:13;5.07;;;4.63;;
25331;SDS011;13284;52.748;13.452;2023-07-13T02:43:38;6.53;;;5.77;;
25331;SDS011;13284;52.748;13.452;2023-07-13T02:46:04;5.97;;;5.47;;
25331;SDS011;13284;52.748;13.452;2023-07-13T02:48:36;6.10;;;5.50;;
25331;SDS011;13284;52.748;13.452;2023-07-13T02:51:02;5.67;;;4.90;;
25331;SDS011;13284;52.748;13.452;2023-07-13T02:53:28;5.93;;;5.33;;
25331;SDS011;13284;52.748;13.452;2023-07-13T02:55:54;9.83;;;5.30;;
25331;SDS011;13284;52.748;13.452;2023-07-13T02:58:20;6.93;;;5.53;;
25331;SDS011;13284;52.748;13.452;2023-07-13T03:00:46;7.33;;;5.53;;
25331;SDS011;13284;52.748;13.452;2023-07-13T03:03:12;5.67;;;5.10;;
25331;SDS011;13284;52.748;13.452;2023-07-13T03:05:40;6.23;;;4.97;;
25331;SDS011;13284;52.748;13.452;2023-07-13T03:08:07;6.23;;;5.57;;
25331;SDS011;13284;52.748;13.452;2023-07-13T03:10:36;5.70;;;5.20;;
25331;SDS011;13284;52.748;13.452;2023-07-13T03:13:03;6.00;;;5.50;;
25331;SDS011;13284;52.748;13.452;2023-07-13T03:15:28;6.80;;;5.20;;
25331;SDS011;13284;52.748;13.452;2023-07-13T03:17:54;6.30;;;5.30;;
25331;SDS011;13284;52.748;13.452;2023-07-13T03:20:19;6.17;;;4.70;;
25331;SDS011;13284;52.748;13.452;2023-07-13T03:22:45;5.93;;;4.70;;
25331;SDS011;13284;52.748;13.452;2023-07-13T03:25:11;6.40;;;4.90;;
25331;SDS011;13284;52.748;13.452;2023-07-13T03:27:37;7.20;;;4.87;;
25331;SDS011;13284;52.748;13.452;2023-07-13T03:30:04;6.83;;;5.00;;
25331;SDS011;13284;52.748;13.452;2023-07-13T03:32:30;7.30;;;5.30;;
25331;SDS011;13284;52.748;13.452;2023-07-13T03:34:56;7.00;;;5.50;;
25331;SDS011;13284;52.748;13.452;2023-07-13T03:37:22;5.40;;;4.90;;
25331;SDS011;13284;52.748;13.452;2023-07-13T03:39:47;5.43;;;4.90;;
25331;SDS011;13284;52.748;13.452;2023-07-13T03:42:13;5.50;;;4.87;;
25331;SDS011;13284;52.748;13.452;2023-07-13T03:44:40;5.80;;;4.83;;
25331;SDS011;13284;52.748;13.452;2023-07-13T03:47:06;6.17;;;5.57;;
25331;SDS011;13284;52.748;13.452;2023-07-13T03:49:33;6.07;;;5.50;;
25331;SDS011;13284;52.748;13.452;2023-07-13T03:51:59;5.53;;;5.03;;
25331;SDS011;13284;52.748;13.452;2023-07-13T03:54:25;7.43;;;4.97;;
25331;SDS011;13284;52.748;13.452;2023-07-13T03:56:50;7.30;;;5.47;;
25331;SDS011;13284;52.748;13.452;2023-07-13T03:59:16;7.37;;;5.27;;
25331;SDS011;13284;52.748;13.452;2023-07-13T04:01:42;7.80;;;5.57;;
25331;SDS011;13284;52.748;13.452;2023-07-13T04:04:08;6.43;;;5.67;;
25331;SDS011;13284;52.748;13.452;2023-07-13T04:06:34;6.13;;;5.17;;
25331;SDS011;13284;52.748;13.452;2023-07-13T04:09:00;7.07;;;5.87;;
25331;SDS011;13284;52.748;13.452;2023-07-13T04:11:28;5.77;;;5.27;;
25331;SDS011;13284;52.748;13.452;2023-07-13T04:13:56;5.77;;;5.17;;
25331;SDS011;13284;52.748;13.452;2023-07-13T04:16:22;10.57;;;5.50;;
25331;SDS011;13284;52.748;13.452;2023-07-13T04:18:48;5.47;;;4.80;;
25331;SDS011;13284;52.748;13.452;2023-07-13T04:21:14;5.97;;;5.47;;
25331;SDS011;13284;52.748;13.452;2023-07-13T04:23:41;6.10;;;5.60;;
25331;SDS011;13284;52.748;13.452;2023-07-13T04:26:06;6.13;;;5.03;;
25331;SDS011;13284;52.748;13.452;2023-07-13T04:28:33;5.50;;;4.97;;
25331;SDS011;13284;52.748;13.452;2023-07-13T04:30:59;7.30;;;5.23;;
25331;SDS011;13284;52.748;13.452;2023-07-13T04:33:25;5.77;;;5.00;;
25331;SDS011;13284;52.748;13.452;2023-07-13T04:35:52;7.17;;;5.03;;
25331;SDS011;13284;52.748;13.452;2023-07-13T04:38:23;6.43;;;5.10;;
25331;SDS011;13284;52.748;13.452;2023-07-13T04:40:49;6.07;;;4.87;;
25331;SDS011;13284;52.748;13.452;2023-07-13T04:43:15;5.10;;;4.60;;
25331;SDS011;13284;52.748;13.452;2023-07-13T04:45:41;7.13;;;4.70;;
25331;SDS011;13284;52.748;13.452;2023-07-13T04:48:07;8.53;;;4.93;;
25331;SDS011;13284;52.748;13.452;2023-07-13T04:50:32;6.53;;;5.93;;
25331;SDS011;13284;52.748;13.452;2023-07-13T04:52:57;5.77;;;5.23;;
25331;SDS011;13284;52.748;13.452;2023-07-13T04:55:24;5.13;;;4.63;;
25331;SDS011;13284;52.748;13.452;2023-07-13T04:57:49;5.10;;;4.70;;
25331;SDS011;13284;52.748;13.452;2023-07-13T05:00:16;6.37;;;4.67;;
25331;SDS011;13284;52.748;13.452;2023-07-13T05:02:43;8.27;;;4.60;;
25331;SDS011;13284;52.748;13.452;2023-07-13T05:05:10;5.13;;;4.60;;
25331;SDS011;13284;52.748;13.452;2023-07-13T05:07:36;5.17;;;4.30;;
25331;SDS011;13284;52.748;13.452;2023-07-13T05:10:02;4.80;;;4.30;;
25331;SDS011;13284;52.748;13.452;2023-07-13T05:12:28;7.20;;;4.50;;
25331;SDS011;13284;52.748;13.452;2023-07-13T05:14:54;5.27;;;4.50;;
25331;SDS011;13284;52.748;13.452;2023-07-13T05:17:20;4.57;;;4.17;;
25331;SDS011;13284;52.748;13.452;2023-07-13T05:19:45;4.60;;;4.27;;
25331;SDS011;13284;52.748;13.452;2023-07-13T05:22:11;5.50;;;3.90;;
25331;SDS011;13284;52.748;13.452;2023-07-13T05:24:36;4.33;;;3.93;;
25331;SDS011;13284;52.748;13.452;2023-07-13T05:27:02;4.53;;;3.60;;
25331;SDS011;13284;52.748;13.452;2023-07-13T05:29:27;3.87;;;3.20;;
25331;SDS011;13284;52.748;13.452;2023-07-13T05:31:53;7.17;;;6.47;;
25331;SDS011;13284;52.748;13.452;2023-07-13T05:34:18;4.63;;;4.20;;
25331;SDS011;13284;52.748;13.452;2023-07-13T05:36:44;4.40;;;3.97;;
25331;SDS011;13284;52.748;13.452;2023-07-13T05:39:10;3.70;;;3.40;;
25331;SDS011;13284;52.748;13.452;2023-07-13T05:41:36;3.40;;;3.10;;
25331;SDS011;13284;52.748;13.452;2023-07-13T05:44:02;3.67;;;3.37;;
25331;SDS011;13284;52.748;13.452;2023-07-13T05:46:30;4.90;;;3.33;;
25331;SDS011;13284;52.748;13.452;2023-07-13T05:48:56;3.50;;;3.20;;
25331;SDS011;13284;52.748;13.452;2023-07-13T05:51:21;4.60;;;3.50;;
25331;SDS011;13284;52.748;13.452;2023-07-13T05:53:47;3.93;;;3.37;;
25331;SDS011;13284;52.748;13.452;2023-07-13T05:56:12;3.77;;;3.47;;
25331;SDS011;13284;52.748;13.452;2023-07-13T05:58:37;3.33;;;3.03;;
25331;SDS011;13284;52.748;13.452;2023-07-13T06:01:08;4.07;;;3.43;;
25331;SDS011;13284;52.748;13.452;2023-07-13T06:03:35;4.00;;;3.20;;
25331;SDS011;13284;52.748;13.452;2023-07-13T06:06:02;8.13;;;3.60;;
25331;SDS011;13284;52.748;13.452;2023-07-13T06:08:30;3.47;;;3.10;;
25331;SDS011;13284;52.748;13.452;2023-07-13T06:11:01;3.60;;;2.73;;
25331;SDS011;13284;52.748;13.452;2023-07-13T06:13:28;3.13;;;2.70;;
25331;SDS011;13284;52.748;13.452;2023-07-13T06:15:53;6.50;;;3.10;;
25331;SDS011;13284;52.748;13.452;2023-07-13T06:18:19;4.33;;;3.30;;
25331;SDS011;13284;52.748;13.452;2023-07-13T06:20:44;6.07;;;3.93;;
25331;SDS011;13284;52.748;13.452;2023-07-13T06:23:10;4.40;;;2.93;;
25331;SDS011;13284;52.748;13.452;2023-07-13T06:25:35;3.30;;;3.00;;
25331;SDS011;13284;52.748;13.452;2023-07-13T06:28:01;4.07;;;2.40;;
25331;SDS011;13284;52.748;13.452;2023-07-13T06:30:27;2.70;;;2.50;;
25331;SDS011;13284;52.748;13.452;2023-07-13T06:32:52;2.93;;;2.50;;
25331;SDS011;13284;52.748;13.452;2023-07-13T06:35:18;3.97;;;2.80;;
25331;SDS011;13284;52.748;13.452;2023-07-13T06:37:43;4.70;;;3.20;;
25331;SDS011;13284;52.748;13.452;2023-07-13T06:40:09;4.43;;;3.00;;
25331;SDS011;13284;52.748;13.452;2023-07-13T06:42:35;4.43;;;2.57;;
25331;SDS011;13284;52.748;13.452;2023-07-13T06:45:00;3.10;;;2.73;;
25331;SDS011;13284;52.748;13.452;2023-07-13T06:47:26;4.50;;;3.07;;
25331;SDS011;13284;52.748;13.452;2023-07-13T06:49:52;3.33;;;2.90;;
25331;SDS011;13284;52.748;13.452;2023-07-13T06:52:17;2.93;;;2.63;;
25331;SDS011;13284;52.748;13.452;2023-07-13T06:54:43;3.90;;;2.70;;
25331;SDS011;13284;52.748;13.452;2023-07-13T06:57:09;3.03;;;2.80;;
25331;SDS011;13284;52.748;13.452;2023-07-13T06:59:34;3.33;;;3.00;;
25331;SDS011;13284;52.748;13.452;2023-07-13T07:01:59;3.03;;;2.60;;
25331;SDS011;13284;52.748;13.452;2023-07-13T07:04:25;2.60;;;2.40;;
25331;SDS011;13284;52.748;13.452;2023-07-13T07:06:50;7.67;;;4.00;;
25331;SDS011;13284;52.748;13.452;2023-07-13T07:09:17;4.37;;;2.80;;
25331;SDS011;13284;52.748;13.452;2023-07-13T07:11:42;3.00;;;2.40;;
25331;SDS011;13284;52.748;13.452;2023-07-13T07:14:08;2.80;;;2.60;;
25331;SDS011;13284;52.748;13.452;2023-07-13T07:16:33;5.67;;;2.77;;
25331;SDS011;13284;52.748;13.452;2023-07-13T07:18:59;3.57;;;2.80;;
25331;SDS011;13284;52.748;13.452;2023-07-13T07:21:24;3.37;;;2.63;;
25331;SDS011;13284;52.748;13.452;2023-07-13T07:23:51;2.30;;;2.10;;
25331;SDS011;13284;52.748;13.452;2023-07-13T07:26:17;4.23;;;2.50;;
25331;SDS011;13284;52.748;13.452;2023-07-13T07:28:43;2.73;;;2.17;;
25331;SDS011;13284;52.748;13.452;2023-07-13T07:31:08;3.13;;;2.17;;
25331;SDS011;13284;52.748;13.452;2023-07-13T07:33:34;2.53;;;1.77;;
25331;SDS011;13284;52.748;13.452;2023-07-13T07:36:00;3.83;;;2.20;;
25331;SDS011;13284;52.748;13.452;2023-07-13T07:38:26;4.27;;;2.73;;
25331;SDS011;13284;52.748;13.452;2023-07-13T07:40:52;2.53;;;2.13;;
25331;SDS011;13284;52.748;13.452;2023-07-13T07:43:17;6.83;;;1.70;;
25331;SDS011;13284;52.748;13.452;2023-07-13T07:45:44;2.60;;;1.93;;
25331;SDS011;13284;52.748;13.452;2023-07-13T07:48:10;2.70;;;2.00;;
25331;SDS011;13284;52.748;13.452;2023-07-13T07:50:35;2.53;;;1.90;;
25331;SDS011;13284;52.748;13.452;2023-07-13T07:53:01;3.97;;;2.30;;
25331;SDS011;13284;52.748;13.452;2023-07-13T07:55:27;2.40;;;2.00;;
25331;SDS011;13284;52.748;13.452;2023-07-13T07:57:53;3.97;;;1.93;;
25331;SDS011;13284;52.748;13.452;2023-07-13T08:00:19;2.80;;;1.90;;
25331;SDS011;13284;52.748;13.452;2023-07-13T08:02:45;1.73;;;1.63;;
25331;SDS011;13284;52.748;13.452;2023-07-13T08:05:11;1.60;;;1.50;;
25331;SDS011;13284;52.748;13.452;2023-07-13T08:07:37;1.97;;;1.77;;
25331;SDS011;13284;52.748;13.452;2023-07-13T08:10:03;1.30;;;1.20;;
25331;SDS011;13284;52.748;13.452;2023-07-13T08:12:30;1.10;;;1.00;;
25331;SDS011;13284;52.748;13.452;2023-07-13T08:14:59;0.90;;;0.90;;
25331;SDS011;13284;52.748;13.452;2023-07-13T08:17:25;11.60;;;1.80;;
25331;SDS011;13284;52.748;13.452;2023-07-13T08:19:51;1.57;;;1.30;;
25331;SDS011;13284;52.748;13.452;2023-07-13T08:22:17;1.60;;;1.47;;
25331;SDS011;13284;52.748;13.452;2023-07-13T08:24:45;2.10;;;1.90;;
25331;SDS011;13284;52.748;13.452;2023-07-13T08:27:12;1.63;;;1.40;;
25331;SDS011;13284;52.748;13.452;2023-07-13T08:29:38;1.87;;;1.77;;
25331;SDS011;13284;52.748;13.452;2023-07-13T08:32:05;3.00;;;1.30;;
25331;SDS011;13284;52.748;13.452;2023-07-13T08:34:34;4.00;;;1.17;;
25331;SDS011;13284;52.748;13.452;2023-07-13T08:37:00;1.57;;;1.30;;
25331;SDS011;13284;52.748;13.452;2023-07-13T08:39:25;2.00;;;1.20;;
25331;SDS011;13284;52.748;13.452;2023-07-13T08:42:01;2.07;;;1.30;;
25331;SDS011;13284;52.748;13.452;2023-07-13T08:44:57;1.63;;;1.17;;
25331;SDS011;13284;52.748;13.452;2023-07-13T08:47:21;1.20;;;1.10;;
25331;SDS011;13284;52.748;13.452;2023-07-13T08:49:48;1.20;;;1.10;;
25331;SDS011;13284;52.748;13.452;2023-07-13T08:52:26;1.20;;;1.10;;
25331;SDS011;13284;52.748;13.452;2023-07-13T08:55:03;2.37;;;0.80;;
25331;SDS011;13284;52.748;13.452;2023-07-13T08:57:39;1.87;;;1.10;;
25331;SDS011;13284;52.748;13.452;2023-07-13T09:00:09;1.10;;;1.00;;
25331;SDS011;13284;52.748;13.452;2023-07-13T09:02:52;1.83;;;1.63;;
25331;SDS011;13284;52.748;13.452;2023-07-13T09:05:28;2.53;;;1.80;;
25331;SDS011;13284;52.748;13.452;2023-07-13T09:08:02;2.47;;;1.57;;
25331;SDS011;13284;52.748;13.452;2023-07-13T09:10:46;2.10;;;1.10;;
25331;SDS011;13284;52.748;13.452;2023-07-13T09:15:52;3.00;;;1.43;;
25331;SDS011;13284;52.748;13.452;2023-07-13T09:18:34;4.20;;;1.50;;
25331;SDS011;13284;52.748;13.452;2023-07-13T09:21:07;4.00;;;1.60;;
25331;SDS011;13284;52.748;13.452;2023-07-13T09:23:37;1.30;;;1.20;;
25331;SDS011;13284;52.748;13.452;2023-07-13T09:26:13;1.60;;;1.50;;
25331;SDS011;13284;52.748;13.452;2023-07-13T09:28:44;1.60;;;1.50;;
25331;SDS011;13284;52.748;13.452;2023-07-13T09:31:23;1.70;;;1.60;;
25331;SDS011;13284;52.748;13.452;2023-07-13T09:33:54;2.70;;;1.67;;
25331;SDS011;13284;52.748;13.452;2023-07-13T09:36:27;2.80;;;1.87;;
25331;SDS011;13284;52.748;13.452;2023-07-13T09:39:05;2.40;;;1.93;;
25331;SDS011;13284;52.748;13.452;2023-07-13T09:41:41;2.00;;;1.67;;
25331;SDS011;13284;52.748;13.452;2023-07-13T09:44:18;9.33;;;3.10;;
25331;SDS011;13284;52.748;13.452;2023-07-13T09:47:26;2.03;;;1.70;;
25331;SDS011;13284;52.748;13.452;2023-07-13T09:52:27;1.50;;;1.40;;
25331;SDS011;13284;52.748;13.452;2023-07-13T09:55:03;1.63;;;1.53;;
25331;SDS011;13284;52.748;13.452;2023-07-13T09:57:29;2.27;;;1.70;;
25331;SDS011;13284;52.748;13.452;2023-07-13T09:59:56;2.20;;;1.63;;
25331;SDS011;13284;52.748;13.452;2023-07-13T10:05:05;2.07;;;1.67;;
25331;SDS011;13284;52.748;13.452;2023-07-13T10:07:40;1.80;;;1.70;;
25331;SDS011;13284;52.748;13.452;2023-07-13T10:10:14;6.00;;;1.83;;
25331;SDS011;13284;52.748;13.452;2023-07-13T10:12:45;1.70;;;1.60;;
25331;SDS011;13284;52.748;13.452;2023-07-13T10:15:15;2.37;;;1.70;;
25331;SDS011;13284;52.748;13.452;2023-07-13T10:17:42;1.63;;;1.53;;
25331;SDS011;13284;52.748;13.452;2023-07-13T10:20:09;2.70;;;1.93;;
25331;SDS011;13284;52.748;13.452;2023-07-13T10:25:25;2.60;;;1.77;;
25331;SDS011;13284;52.748;13.452;2023-07-13T10:28:02;3.03;;;1.73;;
25331;SDS011;13284;52.748;13.452;2023-07-13T10:30:40;3.00;;;1.93;;
25331;SDS011;13284;52.748;13.452;2023-07-13T10:33:10;3.27;;;2.23;;
25331;SDS011;13284;52.748;13.452;2023-07-13T10:35:42;3.97;;;2.00;;
25331;SDS011;13284;52.748;13.452;2023-07-13T10:38:18;2.50;;;2.30;;
25331;SDS011;13284;52.748;13.452;2023-07-13T10:43:23;2.50;;;2.30;;
25331;SDS011;13284;52.748;13.452;2023-07-13T10:45:52;2.37;;;2.20;;
25331;SDS011;13284;52.748;13.452;2023-07-13T10:48:20;2.60;;;2.40;;
25331;SDS011;13284;52.748;13.452;2023-07-13T10:50:49;3.60;;;2.53;;
25331;SDS011;13284;52.748;13.452;2023-07-13T10:53:19;2.40;;;2.13;;
25331;SDS011;13284;52.748;13.452;2023-07-13T10:58:19;3.20;;;3.00;;
25331;SDS011;13284;52.748;13.452;2023-07-13T11:00:48;3.23;;;2.90;;
25331;SDS011;13284;52.748;13.452;2023-07-13T11:03:46;2.80;;;2.60;;
25331;SDS011;13284;52.748;13.452;2023-07-13T11:14:44;3.30;;;2.70;;
25331;SDS011;13284;52.748;13.452;2023-07-13T11:20:42;3.00;;;2.40;;
25331;SDS011;13284;52.748;13.452;2023-07-13T11:22:44;4.23;;;2.50;;
25331;SDS011;13284;52.748;13.452;2023-07-13T11:25:26;2.87;;;2.57;;
25331;SDS011;13284;52.748;13.452;2023-07-13T11:28:04;2.70;;;2.50;;
25331;SDS011;13284;52.748;13.452;2023-07-13T11:30:32;2.50;;;2.30;;
25331;SDS011;13284;52.748;13.452;2023-07-13T11:33:20;2.00;;;1.90;;
25331;SDS011;13284;52.748;13.452;2023-07-13T11:35:49;2.23;;;1.90;;
25331;SDS011;13284;52.748;13.452;2023-07-13T11:38:23;2.70;;;2.50;;
25331;SDS011;13284;52.748;13.452;2023-07-13T11:40:56;3.43;;;2.93;;
25331;SDS011;13284;52.748;13.452;2023-07-13T11:43:28;1.90;;;1.80;;
25331;SDS011;13284;52.748;13.452;2023-07-13T11:45:53;2.97;;;2.77;;
25331;SDS011;13284;52.748;13.452;2023-07-13T11:48:20;2.83;;;1.93;;
25331;SDS011;13284;52.748;13.452;2023-07-13T11:50:53;3.10;;;2.00;;
25331;SDS011;13284;52.748;13.452;2023-07-13T11:53:26;2.60;;;2.40;;
25331;SDS011;13284;52.748;13.452;2023-07-13T11:55:57;2.27;;;2.03;;
25331;SDS011;13284;52.748;13.452;2023-07-13T11:58:24;3.43;;;2.10;;
25331;SDS011;13284;52.748;13.452;2023-07-13T12:00:53;2.63;;;2.43;;
25331;SDS011;13284;52.748;13.452;2023-07-13T12:03:21;2.37;;;2.20;;
25331;SDS011;13284;52.748;13.452;2023-07-13T12:05:56;2.53;;;1.97;;
25331;SDS011;13284;52.748;13.452;2023-07-13T12:08:24;2.60;;;2.40;;
25331;SDS011;13284;52.748;13.452;2023-07-13T12:10:56;2.63;;;2.43;;
25331;SDS011;13284;52.748;13.452;2023-07-13T12:13:43;3.13;;;2.53;;
25331;SDS011;13284;52.748;13.452;2023-07-13T12:16:14;3.20;;;2.50;;
25331;SDS011;13284;52.748;13.452;2023-07-13T12:18:49;3.87;;;2.27;;
25331;SDS011;13284;52.748;13.452;2023-07-13T12:21:18;2.60;;;2.27;;
25331;SDS011;13284;52.748;13.452;2023-07-13T12:23:48;5.73;;;2.70;;
25331;SDS011;13284;52.748;13.452;2023-07-13T12:26:14;4.90;;;2.50;;
25331;SDS011;13284;52.748;13.452;2023-07-13T12:28:49;3.50;;;2.60;;
25331;SDS011;13284;52.748;13.452;2023-07-13T12:31:25;3.07;;;2.63;;
25331;SDS011;13284;52.748;13.452;2023-07-13T12:33:56;4.27;;;2.70;;
25331;SDS011;13284;52.748;13.452;2023-07-13T12:36:23;2.93;;;2.60;;
25331;SDS011;13284;52.748;13.452;2023-07-13T12:38:49;4.20;;;3.60;;
25331;SDS011;13284;52.748;13.452;2023-07-13T12:44:12;4.40;;;3.13;;
25331;SDS011;13284;52.748;13.452;2023-07-13T12:46:50;3.03;;;2.63;;
25331;SDS011;13284;52.748;13.452;2023-07-13T12:49:22;5.50;;;2.90;;
25331;SDS011;13284;52.748;13.452;2023-07-13T12:52:01;3.00;;;2.70;;
25331;SDS011;13284;52.748;13.452;2023-07-13T12:54:29;5.33;;;3.33;;
25331;SDS011;13284;52.748;13.452;2023-07-13T12:56:56;3.83;;;3.43;;
25331;SDS011;13284;52.748;13.452;2023-07-13T12:59:24;3.90;;;2.53;;
25331;SDS011;13284;52.748;13.452;2023-07-13T13:01:54;5.50;;;3.00;;
25331;SDS011;13284;52.748;13.452;2023-07-13T13:04:20;3.20;;;2.90;;
25331;SDS011;13284;52.748;13.452;2023-07-13T13:06:46;3.57;;;3.27;;
25331;SDS011;13284;52.748;13.452;2023-07-13T13:09:13;3.90;;;2.93;;
25331;SDS011;13284;52.748;13.452;2023-07-13T13:11:40;2.83;;;2.60;;
25331;SDS011;13284;52.748;13.452;2023-07-13T13:14:06;3.07;;;2.77;;
25331;SDS011;13284;52.748;13.452;2023-07-13T13:16:33;5.17;;;2.83;;
25331;SDS011;13284;52.748;13.452;2023-07-13T13:19:09;2.40;;;2.20;;
25331;SDS011;13284;52.748;13.452;2023-07-13T13:21:37;2.53;;;2.40;;
25331;SDS011;13284;52.748;13.452;2023-07-13T13:24:04;5.10;;;3.87;;
25331;SDS011;13284;52.748;13.452;2023-07-13T13:26:36;5.03;;;3.47;;
25331;SDS011;13284;52.748;13.452;2023-07-13T13:29:03;2.90;;;2.70;;
25331;SDS011;13284;52.748;13.452;2023-07-13T13:31:36;2.70;;;2.50;;
25331;SDS011;13284;52.748;13.452;2023-07-13T13:34:01;2.60;;;2.17;;
25331;SDS011;13284;52.748;13.452;2023-07-13T13:36:30;2.70;;;2.50;;
25331;SDS011;13284;52.748;13.452;2023-07-13T13:38:56;3.53;;;2.70;;
25331;SDS011;13284;52.748;13.452;2023-07-13T13:41:21;2.70;;;2.50;;
25331;SDS011;13284;52.748;13.452;2023-07-13T13:43:46;2.40;;;2.20;;
25331;SDS011;13284;52.748;13.452;2023-07-13T13:46:19;2.60;;;2.40;;
25331;SDS011;13284;52.748;13.452;2023-07-13T13:48:55;2.67;;;2.47;;
25331;SDS011;13284;52.748;13.452;2023-07-13T13:51:22;2.50;;;2.23;;
25331;SDS011;13284;52.748;13.452;2023-07-13T13:53:49;3.07;;;2.30;;
25331;SDS011;13284;52.748;13.452;2023-07-13T13:56:15;3.03;;;2.70;;
25331;SDS011;13284;52.748;13.452;2023-07-13T13:58:42;4.20;;;2.23;;
25331;SDS011;13284;52.748;13.452;2023-07-13T14:01:20;3.27;;;2.53;;
25331;SDS011;13284;52.748;13.452;2023-07-13T14:03:50;2.17;;;2.00;;
25331;SDS011;13284;52.748;13.452;2023-07-13T14:06:16;2.60;;;2.43;;
25331;SDS011;13284;52.748;13.452;2023-07-13T14:08:42;3.37;;;2.43;;
25331;SDS011;13284;52.748;13.452;2023-07-13T14:11:10;6.00;;;2.70;;
25331;SDS011;13284;52.748;13.452;2023-07-13T14:13:40;4.87;;;2.80;;
25331;SDS011;13284;52.748;13.452;2023-07-13T14:16:09;2.93;;;2.47;;
25331;SDS011;13284;52.748;13.452;2023-07-13T14:18:37;3.00;;;2.80;;
25331;SDS011;13284;52.748;13.452;2023-07-13T14:21:03;4.13;;;3.10;;
25331;SDS011;13284;52.748;13.452;2023-07-13T14:23:33;2.80;;;2.13;;
25331;SDS011;13284;52.748;13.452;2023-07-13T14:25:59;4.50;;;2.80;;
25331;SDS011;13284;52.748;13.452;2023-07-13T14:28:25;3.17;;;2.97;;
25331;SDS011;13284;52.748;13.452;2023-07-13T14:30:52;3.03;;;2.70;;
25331;SDS011;13284;52.748;13.452;2023-07-13T14:33:21;2.67;;;2.47;;
25331;SDS011;13284;52.748;13.452;2023-07-13T14:35:47;3.40;;;2.40;;
25331;SDS011;13284;52.748;13.452;2023-07-13T14:38:15;2.33;;;2.13;;
25331;SDS011;13284;52.748;13.452;2023-07-13T14:40:44;3.70;;;2.67;;
25331;SDS011;13284;52.748;13.452;2023-07-13T14:43:12;2.97;;;2.77;;
25331;SDS011;13284;52.748;13.452;2023-07-13T14:45:41;3.20;;;2.90;;
25331;SDS011;13284;52.748;13.452;2023-07-13T14:48:16;2.63;;;2.37;;
25331;SDS011;13284;52.748;13.452;2023-07-13T14:50:49;6.00;;;2.97;;
25331;SDS011;13284;52.748;13.452;2023-07-13T14:53:21;3.13;;;2.67;;
25331;SDS011;13284;52.748;13.452;2023-07-13T14:55:47;3.23;;;2.20;;
25331;SDS011;13284;52.748;13.452;2023-07-13T14:58:15;2.70;;;2.50;;
25331;SDS011;13284;52.748;13.452;2023-07-13T15:00:41;2.70;;;2.50;;
25331;SDS011;13284;52.748;13.452;2023-07-13T15:03:08;1.90;;;1.80;;
25331;SDS011;13284;52.748;13.452;2023-07-13T15:05:46;3.47;;;1.80;;
25331;SDS011;13284;52.748;13.452;2023-07-13T15:08:13;3.53;;;1.90;;
25331;SDS011;13284;52.748;13.452;2023-07-13T15:10:39;2.30;;;1.93;;